Alpha, California Weather observations

Data are for observation ending at time listed.
 Day   Time    Ave.   Ave.  Ave.  Vector   Max.   Stn.    Total    Solar   Ave.   Snow 
  of    of     Air    Rel.  Wind   Wind    Wind   Baro.  Precip.   Rad.    Soil   Depth
Year   Day     Temp.  Hum.  Speed  Dir.    Gust   Pres.                    Temp.       
2015   (PST)    F      %     mph   deg.    mph     mb.     in.     W/m2     F      in. 
---------------------------------------------------------------------------------------  
 115    0:00   28.0    95    7.2   195     12.3   777.9    0.00       0    999.0  170.0
 115    0:10   28.0    95    8.8   190     15.8   777.8    0.00       0    999.0  115.7
 115    0:20   27.9    95    9.4   191     16.1   777.6    0.00       0    999.0  139.4
 115    0:30   27.7    95   11.1   192     18.3   777.5    0.00       0    999.0  149.6
 115    0:40   27.6    95   11.3   190     17.6   777.2    0.00       0    999.0  122.0
 115    0:50   27.5    95   11.1   190     19.1   777.1    0.00       0    999.0  160.5
 115    1:00   27.4    95    9.3   194     16.7   777.0    0.00       0    999.0  172.5
 115    1:10   27.4    95   11.6   190     18.6   776.8    0.00       0    999.0  106.4
 115    1:20   27.4    95   10.8   188     18.0   776.6    0.00       0    999.0  172.5
 115    1:30   27.4    95   10.3   187     19.1   776.4    0.00       0    999.0  172.5
 115    1:40   27.4    95   10.4   193     20.4   776.2    0.00       0    999.0  155.1
 115    1:50   27.5    95    7.7   200     14.5   776.1    0.00       0    999.0  157.6
 115    2:00   27.5    95    5.6   208     15.3   776.1    0.00       0    999.0  172.5
 115    2:10   27.4    95    4.6   212     12.5   776.1    0.00       0    999.0  125.6
 115    2:20   27.3    95    3.8   217      9.4   775.9    0.00       0    999.0  167.0
 115    2:30   27.3    95    3.2   211      7.0   775.7    0.00       0    999.0  171.0
 115    2:40   27.3    95    3.4   214      8.2   775.6    0.00       0    999.0  170.0
 115    2:50   27.3    95    2.6   221      6.3   775.6    0.00       0    999.0  169.7
 115    3:00   27.2    95    3.8   217      7.8   775.5    0.00       0    999.0  156.8
 115    3:10   27.2    95    3.3   228     11.4   775.4    0.00       0    999.0  141.5
 115    3:20   27.2    95    2.2   229      5.5   775.4    0.00       0    999.0  135.6
 115    3:30   27.2    95    3.9   253      9.3   775.6    0.00       0    999.0  133.7
 115    3:40   27.3    95    4.7   280     12.9   775.5    0.00       0    999.0   64.6
 115    3:50   27.2    95    3.2   307      8.8   775.5    0.00       0    999.0  169.7
 115    4:00   27.1    95    2.9   318      8.6   775.6    0.00       0    999.0  172.5
 115    4:10   27.1    95    3.3   300     11.4   775.6    0.00       0    999.0  112.9
 115    4:20   27.3    95    4.2   284      7.9   775.5    0.00       0    999.0  104.5
 115    4:30   27.3    95    4.7   279     10.4   775.5    0.00       0    999.0  109.6
 115    4:40   27.3    95    4.6   284     10.2   775.5    0.00       0    999.0  129.9
 115    4:50   27.4    95    4.3   275     10.5   775.5    0.00       0    999.0  138.1
 115    5:00   27.6    95    4.1   279      8.6   775.5    0.00       0    999.0  130.5
 115    5:10   27.8    95    4.2   286      9.0   775.6    0.00       0    999.0  126.9
 115    5:20   28.0    95    3.5   292      7.9   775.7    0.00       0    999.0  172.5
 115    5:30   28.2    95    3.7   293      9.9   775.8    0.00       1    999.0  169.7
 115    5:40   28.3    95    3.9   301     10.2   775.8    0.00       3    999.0  139.7
 115    5:50   28.5    95    4.1   300     11.5   775.8    0.00       5    999.0  172.5
 115    6:00   28.7    95    4.1   305     10.4   775.9    0.00      17    999.0  152.9
 115    6:10   29.0    95    4.2   296      9.7   776.0    0.00      20    999.0  172.5
 115    6:20   29.1    95    4.4   290     12.3   776.1    0.00      25    999.0  172.5
 115    6:30   29.3    95    4.3   286      9.7   776.2    0.00      24    999.0   34.0
 115    6:40   29.5    95    3.8   288     10.2   776.3    0.00      40    999.0   20.4
 115    6:50   29.7    96    2.9   323      7.7   776.4    0.00      58    999.0   20.4
 115    7:00   30.1    96    2.8   313      8.3   776.5    0.00      77    999.0   20.6
 115    7:10   30.1    96    3.4   282      9.1   776.4    0.00      30    999.0   21.0
 115    7:20   29.8    96    4.3   275      9.3   776.5    0.00      53    999.0   22.7
 115    7:30   29.5    96    3.6   290      7.6   776.7    0.00      65    999.0   23.6
 115    7:40   29.7    96    3.8   285      7.7   776.8    0.00      78    999.0   23.5
 115    7:50   30.0    96    3.4   290      9.2   776.9    0.00     125    999.0   23.4
 115    8:00   30.6    96    2.7   264      8.2   776.9    0.00     124    999.0   22.6
 115    8:10   30.5    96    3.3   267      8.3   776.8    0.00      23    999.0   23.0
 115    8:20   29.9    95    4.1   265     12.2   776.9    0.00      68    999.0   53.2
 115    8:30   29.7    95    2.9   286      8.0   777.0    0.00      42    999.0    3.2
 115    8:40   29.6    95    3.4   285      7.7   777.1    0.00      88    999.0   23.7
 115    8:50   29.8    95    2.9   287      5.9   777.2    0.00      90    999.0   23.6
 115    9:00   30.1    95    2.3   305     10.1   777.3    0.00     139    999.0   23.1
 115    9:10   30.8    96    2.6   322      6.8   777.3    0.00     245    999.0   23.5
 115    9:20   30.8    96    2.1   327      7.2   777.5    0.00      70    999.0   21.9
 115    9:30   30.6    96    2.4   330      5.6   777.6    0.00      88    999.0   35.0
 115    9:40   30.5    96    2.2   336      5.0   777.8    0.00     112    999.0   19.8
 115    9:50   30.8    96    2.4   334      6.6   778.0    0.00     134    999.0   96.8
 115   10:00   31.1    96    1.7   336      6.4   778.1    0.00     143    999.0  137.2
 115   10:10   31.2    96    2.0   325      4.5   778.1    0.00     147    999.0  162.3
 115   10:20   31.2    96    2.4   302      6.3   778.1    0.00      91    999.0  161.6
 115   10:30   31.1    96    2.5   325      7.9   778.2    0.00      87    999.0   82.1
 115   10:40   31.1    96    2.7   323      7.8   778.3    0.00     109    999.0  155.0
 115   10:50   31.2    96    2.4   329      6.5   778.3    0.00     152    999.0  126.1
 115   11:00   31.5    95    2.7   324      7.5   778.4    0.00     301    999.0  119.8
 115   11:10   31.6    95    1.8   317      5.4   778.4    0.00     177    999.0   22.2
 115   11:20   31.5    95    1.5   329      5.3   778.5    0.00     129    999.0   22.1
 115   11:30   31.6    95    1.3   334      3.1   778.5    0.00     199    999.0   21.5
 115   11:40   31.6    95    1.5   310      4.7   778.5    0.00     136    999.0   93.3
 115   11:50   31.7    95    1.2   303      7.4   778.4    0.00     228    999.0   88.9
 115   12:00   32.0    95    2.1   308      6.0   778.4    0.00     335    999.0  119.1
 115   12:10   32.1    95    2.1   300      4.2   778.4    0.00     281    999.0  133.8
 115   12:20   32.3    94    1.8   311      8.1   778.4    0.00     370    999.0  147.3
 115   12:30   32.7    94    2.4   297      6.9   778.5    0.00     411    999.0   49.4
 115   12:40   32.1    94    1.5   291      4.4   778.6    0.00     124    999.0  121.4
 115   12:50   32.4    95    1.3   309      5.8   778.7    0.00     280    999.0  162.1
 115   13:00   32.5    94    1.6   297      4.6   778.8    0.00     224    999.0  147.5
 115   13:10   32.3    95    1.7   279      5.0   778.9    0.00     103    999.0   59.5
 115   13:20   32.0    95    2.3   324      6.9   778.9    0.00     161    999.0   16.2
 115   13:30   32.2    95    1.9   315      6.0   779.1    0.00     151    999.0   33.4
 115   13:40   32.4    95    1.3   331      3.5   779.1    0.00     174    999.0   79.5
 115   13:50   32.7    95    1.4   336      3.9   779.1    0.00     167    999.0   36.5
 115   14:00   32.8    94    1.1   339      3.4   779.1    0.00     166    999.0   20.6
 115   14:10   32.8    94    1.7   329      5.5   779.1    0.00     200    999.0   18.4
 115   14:20   33.1    94    2.4   334      5.3   779.2    0.00     253    999.0   18.5
 115   14:30   33.3    94    1.9   333      4.2   779.2    0.00     257    999.0   91.0
 115   14:40   33.1    94    1.7   331      4.8   779.1    0.00     141    999.0   75.7
 115   14:50   32.2    94    2.0   342      8.7   779.1    0.00      66    999.0   20.1
 115   15:00   32.0    95    2.5   336      6.2   779.0    0.00     157    999.0   19.9
 115   15:10   32.6    95    2.2   330      4.1   779.1    0.00     142    999.0   20.0
 115   15:20   32.4    95    2.2   315      6.6   779.2    0.00      96    999.0   95.9
 115   15:30   32.0    95    1.9   330      4.5   779.4    0.00      59    999.0   65.3
 115   15:40   31.9    95    1.4   325      4.5   779.5    0.00      83    999.0  127.2
 115   15:50   32.1    95    1.5   334      3.9   779.5    0.00      81    999.0  172.5
 115   16:00   32.1    95    1.4   339      3.5   779.6    0.00      63    999.0  172.5
 115   16:10   31.9    95    1.5   322      3.3   779.7    0.00      47    999.0  172.5
 115   16:20   31.8    96    1.3   327      3.8   779.8    0.00      42    999.0  157.4
 115   16:30   31.7    96    1.1   333      4.2   779.8    0.00      45    999.0   34.9
 115   16:40   31.8    96    1.3   329      3.2   779.8    0.00      46    999.0  125.4
 115   16:50   31.8    96    1.1   326      4.4   779.8    0.00      38    999.0  157.9
 115   17:00   31.7    96    1.3   336      3.8   779.9    0.00      35    999.0  172.5
 115   17:10   31.5    96    2.1   334      6.1   779.9    0.00      29    999.0  172.5
 115   17:20   31.3    96    1.9   331      5.2   780.0    0.00      16    999.0  109.6
 115   17:30   31.2    96    1.5   335      3.9   780.1    0.00      15    999.0   96.0
 115   17:40   31.0    96    1.7   335      4.2   780.1    0.00      14    999.0  126.1
 115   17:50   30.9    96    1.8   336      3.7   780.1    0.00      15    999.0  172.5
 115   18:00   30.9    96    1.7   336      3.7   780.4    0.00       9    999.0  172.5
 115   18:10   30.9    96    2.2   332      6.1   780.5    0.00       6    999.0  172.5
 115   18:20   30.7    96    2.2   335      4.5   780.6    0.00       4    999.0  172.5
 115   18:30   30.5    96    2.4   335      5.4   780.7    0.00       4    999.0  172.5
 115   18:40   30.1    96    2.4   333      6.6   780.7    0.00       4    999.0  172.5
 115   18:50   29.6    96    2.1   338      4.6   780.8    0.00       2    999.0  172.5
 115   19:00   29.3    96    1.6   338      3.7   780.9    0.00       1    999.0  172.5
 115   19:10   29.2    96    1.9   338      4.2   781.0    0.00       0    999.0  172.5
 115   19:20   29.0    96    1.6   339      3.3   781.2    0.00       0    999.0  169.2
 115   19:30   28.8    96    1.6   340      4.5   781.3    0.00       0    999.0   94.4
 115   19:40   28.6    96    1.2   338      2.8   781.4    0.00       0    999.0   17.8
 115   19:50   28.6    96    1.1   344      4.8   781.5    0.00       0    999.0   17.9
 115   20:00   28.4    96    1.4   340      2.9   781.4    0.00       0    999.0   17.9
 115   20:10   28.2    96    1.7   344      7.5   781.3    0.00       0    999.0   91.6
 115   20:20   28.0    96    1.6   344      4.1   781.4    0.00       0    999.0  106.4
 115   20:30   28.0    95    0.6   342      1.7   781.5    0.00       0    999.0  167.0
 115   20:40   28.2    95    0.7     1      2.3   781.5    0.00       0    999.0  171.5
 115   20:50   28.4    95    0.4   348      2.0   781.5    0.00       0    999.0  172.5
 115   21:00   28.5    95    0.7   335      2.0   781.7    0.00       0    999.0  172.5
 115   21:10   28.7    95    0.7   346      2.5   781.8    0.00       0    999.0  172.5
 115   21:20   28.7    95    1.1   348      3.4   781.9    0.00       0    999.0  172.5
 115   21:30   28.8    95    1.9   344      6.9   781.8    0.00       0    999.0  172.5
 115   21:40   28.6    95    0.9   346      3.0   781.9    0.00       0    999.0  172.5
 115   21:50   28.4    95    1.4   343      2.7   781.9    0.00       0    999.0  172.5
 115   22:00   28.3    95    0.2   333      3.9   782.0    0.00       0    999.0  172.5
 115   22:10   28.3    95    1.9   349      5.3   782.0    0.00       0    999.0  172.5
 115   22:20   28.2    95    1.8   350      4.0   782.1    0.00       0    999.0  172.5
 115   22:30   28.0    95    1.9   353      4.7   782.1    0.00       0    999.0  157.5
 115   22:40   27.9    95    1.8   353      3.7   782.1    0.00       0    999.0  172.5
 115   22:50   27.7    95    2.4   358      4.2   782.1    0.00       0    999.0  172.5
 115   23:00   27.6    95    2.9   360      6.6   782.2    0.00       0    999.0  172.5
 115   23:10   27.5    95    4.2    10      8.3   782.0    0.00       0    999.0  170.3
 115   23:20   27.5    95    3.8     9      7.6   781.9    0.00       0    999.0  171.7
 115   23:30   27.3    95    3.2     6      7.1   781.9    0.00       0    999.0  128.2

Return to Alpha graphs page.


Western Regional Climate Center,wrcc@dri.edu